sensor_id;sensor_type;location;lat;lon;timestamp;pressure;altitude;pressure_sealevel;temperature;humidity
56174;BME280;42058;52.308;20.924;2022-10-31T00:00:23;101014.80;;;9.55;100.00
56174;BME280;42058;52.308;20.924;2022-10-31T00:02:51;101019.14;;;9.56;100.00
56174;BME280;42058;52.308;20.924;2022-10-31T00:05:17;101014.81;;;9.53;100.00
56174;BME280;42058;52.308;20.924;2022-10-31T00:07:43;101009.17;;;9.49;100.00
56174;BME280;42058;52.308;20.924;2022-10-31T00:10:09;101012.66;;;9.50;100.00
56174;BME280;42058;52.308;20.924;2022-10-31T00:12:35;101014.85;;;9.49;100.00
56174;BME280;42058;52.308;20.924;2022-10-31T00:15:02;101015.76;;;9.48;100.00
56174;BME280;42058;52.308;20.924;2022-10-31T00:17:28;101021.89;;;9.47;100.00
56174;BME280;42058;52.308;20.924;2022-10-31T00:19:54;101023.67;;;9.45;100.00
56174;BME280;42058;52.308;20.924;2022-10-31T00:22:20;101017.56;;;9.42;100.00
56174;BME280;42058;52.308;20.924;2022-10-31T00:24:46;101015.81;;;9.41;100.00
56174;BME280;42058;52.308;20.924;2022-10-31T00:27:12;101015.83;;;9.40;100.00
56174;BME280;42058;52.308;20.924;2022-10-31T00:29:38;101017.19;;;9.38;100.00
56174;BME280;42058;52.308;20.924;2022-10-31T00:32:04;101027.25;;;9.37;100.00
56174;BME280;42058;52.308;20.924;2022-10-31T00:34:30;101026.41;;;9.35;100.00
56174;BME280;42058;52.308;20.924;2022-10-31T00:36:58;101022.92;;;9.35;100.00
56174;BME280;42058;52.308;20.924;2022-10-31T00:39:24;101022.08;;;9.33;100.00
56174;BME280;42058;52.308;20.924;2022-10-31T00:41:50;101019.46;;;9.31;100.00
56174;BME280;42058;52.308;20.924;2022-10-31T00:44:16;101022.55;;;9.29;100.00
56174;BME280;42058;52.308;20.924;2022-10-31T00:46:42;101022.98;;;9.27;100.00
56174;BME280;42058;52.308;20.924;2022-10-31T00:49:08;101026.92;;;9.27;100.00
56174;BME280;42058;52.308;20.924;2022-10-31T00:51:35;101031.78;;;9.24;100.00
56174;BME280;42058;52.308;20.924;2022-10-31T00:54:01;101030.92;;;9.24;100.00
56174;BME280;42058;52.308;20.924;2022-10-31T00:56:27;101032.70;;;9.22;100.00
56174;BME280;42058;52.308;20.924;2022-10-31T00:58:53;101026.14;;;9.20;100.00
56174;BME280;42058;52.308;20.924;2022-10-31T01:01:20;101027.03;;;9.18;100.00
56174;BME280;42058;52.308;20.924;2022-10-31T01:03:46;101030.13;;;9.16;100.00
56174;BME280;42058;52.308;20.924;2022-10-31T01:06:13;101036.28;;;9.15;100.00
56174;BME280;42058;52.308;20.924;2022-10-31T01:08:40;101031.90;;;9.14;100.00
56174;BME280;42058;52.308;20.924;2022-10-31T01:11:18;101029.73;;;9.12;100.00
56174;BME280;42058;52.308;20.924;2022-10-31T01:13:47;101035.45;;;9.10;100.00
56174;BME280;42058;52.308;20.924;2022-10-31T01:16:18;101035.47;;;9.07;100.00
56174;BME280;42058;52.308;20.924;2022-10-31T01:18:46;101032.44;;;9.06;100.00
56174;BME280;42058;52.308;20.924;2022-10-31T01:21:22;101038.56;;;9.04;100.00
56174;BME280;42058;52.308;20.924;2022-10-31T01:23:50;101033.32;;;9.03;100.00
56174;BME280;42058;52.308;20.924;2022-10-31T01:26:21;101039.89;;;9.01;100.00
56174;BME280;42058;52.308;20.924;2022-10-31T01:28:54;101037.33;;;8.98;100.00
56174;BME280;42058;52.308;20.924;2022-10-31T01:31:25;101040.82;;;8.97;100.00
56174;BME280;42058;52.308;20.924;2022-10-31T01:33:53;101038.67;;;8.94;100.00
56174;BME280;42058;52.308;20.924;2022-10-31T01:36:22;101045.23;;;8.94;100.00
56174;BME280;42058;52.308;20.924;2022-10-31T01:38:51;101046.55;;;8.92;100.00
56174;BME280;42058;52.308;20.924;2022-10-31T01:41:21;101043.53;;;8.90;100.00
56174;BME280;42058;52.308;20.924;2022-10-31T01:44:02;101041.81;;;8.87;100.00
56174;BME280;42058;52.308;20.924;2022-10-31T01:46:31;101045.31;;;8.86;100.00
56174;BME280;42058;52.308;20.924;2022-10-31T01:49:02;101041.39;;;8.83;100.00
56174;BME280;42058;52.308;20.924;2022-10-31T01:51:31;101039.67;;;8.82;100.00
56174;BME280;42058;52.308;20.924;2022-10-31T01:54:02;101034.89;;;8.80;100.00
56174;BME280;42058;52.308;20.924;2022-10-31T01:56:31;101043.63;;;8.79;100.00
56174;BME280;42058;52.308;20.924;2022-10-31T01:59:00;101043.65;;;8.76;100.00
56174;BME280;42058;52.308;20.924;2022-10-31T02:01:28;101042.34;;;8.74;100.00
56174;BME280;42058;52.308;20.924;2022-10-31T02:03:55;101036.69;;;8.72;100.00
56174;BME280;42058;52.308;20.924;2022-10-31T02:06:36;101039.33;;;8.70;100.00
56174;BME280;42058;52.308;20.924;2022-10-31T02:09:04;101037.16;;;8.68;100.00
56174;BME280;42058;52.308;20.924;2022-10-31T02:11:33;101032.38;;;8.64;100.00
56174;BME280;42058;52.308;20.924;2022-10-31T02:14:02;101038.09;;;8.62;100.00
56174;BME280;42058;52.308;20.924;2022-10-31T02:16:28;101035.92;;;8.60;100.00
56174;BME280;42058;52.308;20.924;2022-10-31T02:18:55;101034.17;;;8.59;100.00
56174;BME280;42058;52.308;20.924;2022-10-31T02:21:34;101037.70;;;8.58;100.00
56174;BME280;42058;52.308;20.924;2022-10-31T02:30:05;101041.25;;;8.53;100.00
56174;BME280;42058;52.308;20.924;2022-10-31T02:32:54;101038.62;;;8.51;100.00
56174;BME280;42058;52.308;20.924;2022-10-31T02:36:00;101040.40;;;8.49;100.00
56174;BME280;42058;52.308;20.924;2022-10-31T02:41:32;101036.08;;;8.43;100.00
56174;BME280;42058;52.308;20.924;2022-10-31T02:47:10;101047.00;;;8.40;100.00
56174;BME280;42058;52.308;20.924;2022-10-31T02:49:40;101039.59;;;8.38;100.00
56174;BME280;42058;52.308;20.924;2022-10-31T02:52:20;101040.00;;;8.37;100.00
56174;BME280;42058;52.308;20.924;2022-10-31T02:54:47;101044.39;;;8.35;100.00
56174;BME280;42058;52.308;20.924;2022-10-31T02:57:16;101050.09;;;8.35;100.00
56174;BME280;42058;52.308;20.924;2022-10-31T02:59:47;101050.95;;;8.34;100.00
56174;BME280;42058;52.308;20.924;2022-10-31T03:02:23;101061.91;;;8.32;100.00
56174;BME280;42058;52.308;20.924;2022-10-31T03:05:09;101063.22;;;8.30;100.00
56174;BME280;42058;52.308;20.924;2022-10-31T03:07:57;101062.80;;;8.29;100.00
56174;BME280;42058;52.308;20.924;2022-10-31T03:10:58;101068.92;;;8.26;100.00
56174;BME280;42058;52.308;20.924;2022-10-31T03:13:47;101063.27;;;8.25;100.00
56174;BME280;42058;52.308;20.924;2022-10-31T03:19:06;101067.66;;;8.22;100.00
56174;BME280;42058;52.308;20.924;2022-10-31T03:21:53;101070.73;;;8.21;100.00
56174;BME280;42058;52.308;20.924;2022-10-31T03:24:22;101073.77;;;8.19;100.00
56174;BME280;42058;52.308;20.924;2022-10-31T03:26:53;101072.91;;;8.17;100.00
56174;BME280;42058;52.308;20.924;2022-10-31T03:29:24;101078.16;;;8.17;100.00
56174;BME280;42058;52.308;20.924;2022-10-31T03:31:58;101085.61;;;8.16;100.00
56174;BME280;42058;52.308;20.924;2022-10-31T03:34:37;101079.06;;;8.15;100.00
56174;BME280;42058;52.308;20.924;2022-10-31T03:37:07;101086.93;;;8.13;100.00
56174;BME280;42058;52.308;20.924;2022-10-31T03:39:38;101081.69;;;8.13;100.00
56174;BME280;42058;52.308;20.924;2022-10-31T03:42:10;101079.52;;;8.11;100.00
56174;BME280;42058;52.308;20.924;2022-10-31T03:44:41;101080.39;;;8.10;100.00
56174;BME280;42058;52.308;20.924;2022-10-31T03:47:08;101079.08;;;8.08;100.00
56174;BME280;42058;52.308;20.924;2022-10-31T03:49:35;101080.42;;;8.07;100.00
56174;BME280;42058;52.308;20.924;2022-10-31T03:52:26;101078.67;;;8.06;100.00
56174;BME280;42058;52.308;20.924;2022-10-31T03:55:25;101093.09;;;8.06;100.00
56174;BME280;42058;52.308;20.924;2022-10-31T03:58:02;101086.12;;;8.05;100.00
56174;BME280;42058;52.308;20.924;2022-10-31T04:00:40;101090.06;;;8.02;100.00
56174;BME280;42058;52.308;20.924;2022-10-31T04:03:23;101091.37;;;7.99;100.00
56174;BME280;42058;52.308;20.924;2022-10-31T04:05:58;101094.00;;;7.99;100.00
56174;BME280;42058;52.308;20.924;2022-10-31T04:08:30;101090.52;;;7.97;100.00
56174;BME280;42058;52.308;20.924;2022-10-31T04:10:59;101089.66;;;7.95;100.00
56174;BME280;42058;52.308;20.924;2022-10-31T04:13:29;101093.14;;;7.94;100.00
56174;BME280;42058;52.308;20.924;2022-10-31T04:15:59;101089.66;;;7.92;100.00
56174;BME280;42058;52.308;20.924;2022-10-31T04:18:25;101100.14;;;7.93;100.00
56174;BME280;42058;52.308;20.924;2022-10-31T04:21:04;101092.28;;;7.92;100.00
56174;BME280;42058;52.308;20.924;2022-10-31T04:23:32;101091.42;;;7.89;100.00
56174;BME280;42058;52.308;20.924;2022-10-31T04:26:02;101096.25;;;7.88;100.00
56174;BME280;42058;52.308;20.924;2022-10-31T04:28:28;101098.42;;;7.89;100.00
56174;BME280;42058;52.308;20.924;2022-10-31T04:30:55;101102.36;;;7.87;100.00
56174;BME280;42058;52.308;20.924;2022-10-31T04:33:21;101096.67;;;7.86;100.00
56174;BME280;42058;52.308;20.924;2022-10-31T04:35:47;101100.19;;;7.85;100.00
56174;BME280;42058;52.308;20.924;2022-10-31T04:38:14;101101.05;;;7.84;100.00
56174;BME280;42058;52.308;20.924;2022-10-31T04:40:40;101099.33;;;7.83;100.00
56174;BME280;42058;52.308;20.924;2022-10-31T04:43:11;101102.81;;;7.82;100.00
56174;BME280;42058;52.308;20.924;2022-10-31T04:45:38;101103.70;;;7.81;100.00
56174;BME280;42058;52.308;20.924;2022-10-31T04:48:04;101100.64;;;7.80;100.00
56174;BME280;42058;52.308;20.924;2022-10-31T04:50:32;101102.81;;;7.79;100.00
56174;BME280;42058;52.308;20.924;2022-10-31T04:52:58;101105.43;;;7.79;100.00
56174;BME280;42058;52.308;20.924;2022-10-31T04:55:26;101110.26;;;7.78;100.00
56174;BME280;42058;52.308;20.924;2022-10-31T04:58:00;101106.33;;;7.77;100.00
56174;BME280;42058;52.308;20.924;2022-10-31T05:00:26;101108.09;;;7.76;100.00
56174;BME280;42058;52.308;20.924;2022-10-31T05:02:54;101112.47;;;7.74;100.00
56174;BME280;42058;52.308;20.924;2022-10-31T05:05:25;101116.39;;;7.74;100.00
56174;BME280;42058;52.308;20.924;2022-10-31T05:07:53;101115.95;;;7.72;100.00
56174;BME280;42058;52.308;20.924;2022-10-31T05:10:26;101115.53;;;7.70;100.00
56174;BME280;42058;52.308;20.924;2022-10-31T05:12:58;101114.67;;;7.68;100.00
56174;BME280;42058;52.308;20.924;2022-10-31T05:15:44;101113.36;;;7.68;100.00
56174;BME280;42058;52.308;20.924;2022-10-31T05:18:21;101111.61;;;7.66;100.00
56174;BME280;42058;52.308;20.924;2022-10-31T05:21:05;101112.92;;;7.63;100.00
56174;BME280;42058;52.308;20.924;2022-10-31T05:23:36;101115.98;;;7.61;100.00
56174;BME280;42058;52.308;20.924;2022-10-31T05:26:04;101122.56;;;7.58;100.00
56174;BME280;42058;52.308;20.924;2022-10-31T05:28:30;101121.67;;;7.59;100.00
56174;BME280;42058;52.308;20.924;2022-10-31T05:30:57;101118.19;;;7.57;100.00
56174;BME280;42058;52.308;20.924;2022-10-31T05:33:23;101122.12;;;7.55;100.00
56174;BME280;42058;52.308;20.924;2022-10-31T05:36:08;101129.11;;;7.55;100.00
56174;BME280;42058;52.308;20.924;2022-10-31T05:38:42;101122.56;;;7.53;100.00
56174;BME280;42058;52.308;20.924;2022-10-31T05:41:13;101126.08;;;7.52;100.00
56174;BME280;42058;52.308;20.924;2022-10-31T05:43:40;101129.11;;;7.51;100.00
56174;BME280;42058;52.308;20.924;2022-10-31T05:46:06;101129.55;;;7.49;100.00
56174;BME280;42058;52.308;20.924;2022-10-31T05:48:38;101130.45;;;7.48;100.00
56174;BME280;42058;52.308;20.924;2022-10-31T05:51:22;101128.25;;;7.48;100.00
56174;BME280;42058;52.308;20.924;2022-10-31T05:53:49;101126.52;;;7.47;100.00
56174;BME280;42058;52.308;20.924;2022-10-31T05:56:15;101126.52;;;7.45;100.00
56174;BME280;42058;52.308;20.924;2022-10-31T05:58:42;101133.06;;;7.45;100.00
56174;BME280;42058;52.308;20.924;2022-10-31T06:01:08;101134.38;;;7.44;100.00
56174;BME280;42058;52.308;20.924;2022-10-31T06:03:34;101133.92;;;7.44;100.00
56174;BME280;42058;52.308;20.924;2022-10-31T06:06:02;101126.96;;;7.43;100.00
56174;BME280;42058;52.308;20.924;2022-10-31T06:08:31;101129.13;;;7.42;100.00
56174;BME280;42058;52.308;20.924;2022-10-31T06:10:59;101132.65;;;7.41;100.00
56174;BME280;42058;52.308;20.924;2022-10-31T06:13:44;101140.05;;;7.42;100.00
56174;BME280;42058;52.308;20.924;2022-10-31T06:16:15;101142.23;;;7.42;100.00
56174;BME280;42058;52.308;20.924;2022-10-31T06:18:42;101141.36;;;7.43;100.00
56174;BME280;42058;52.308;20.924;2022-10-31T06:21:08;101145.70;;;7.44;100.00
56174;BME280;42058;52.308;20.924;2022-10-31T06:23:35;101145.70;;;7.46;100.00
56174;BME280;42058;52.308;20.924;2022-10-31T06:26:03;101146.58;;;7.48;100.00
56174;BME280;42058;52.308;20.924;2022-10-31T06:28:29;101145.71;;;7.47;100.00
56174;BME280;42058;52.308;20.924;2022-10-31T06:30:57;101148.33;;;7.49;100.00
56174;BME280;42058;52.308;20.924;2022-10-31T06:33:23;101145.72;;;7.50;100.00
56174;BME280;42058;52.308;20.924;2022-10-31T06:35:57;101146.58;;;7.53;100.00
56174;BME280;42058;52.308;20.924;2022-10-31T06:38:25;101144.38;;;7.54;100.00
56174;BME280;42058;52.308;20.924;2022-10-31T06:40:53;101146.14;;;7.56;100.00
56174;BME280;42058;52.308;20.924;2022-10-31T06:43:22;101144.83;;;7.58;100.00
56174;BME280;42058;52.308;20.924;2022-10-31T06:45:49;101149.17;;;7.59;100.00
56174;BME280;42058;52.308;20.924;2022-10-31T06:48:20;101144.80;;;7.61;100.00
56174;BME280;42058;52.308;20.924;2022-10-31T06:51:05;101143.04;;;7.63;100.00
56174;BME280;42058;52.308;20.924;2022-10-31T06:53:31;101146.52;;;7.66;100.00
56174;BME280;42058;52.308;20.924;2022-10-31T06:55:58;101152.66;;;7.68;100.00
56174;BME280;42058;52.308;20.924;2022-10-31T06:58:24;101153.07;;;7.71;100.00
56174;BME280;42058;52.308;20.924;2022-10-31T07:00:50;101157.00;;;7.74;100.00
56174;BME280;42058;52.308;20.924;2022-10-31T07:03:17;101155.66;;;7.77;100.00
56174;BME280;42058;52.308;20.924;2022-10-31T07:05:43;101156.11;;;7.80;100.00
56174;BME280;42058;52.308;20.924;2022-10-31T07:08:12;101153.91;;;7.82;100.00
56174;BME280;42058;52.308;20.924;2022-10-31T07:10:40;101153.91;;;7.85;100.00
56174;BME280;42058;52.308;20.924;2022-10-31T07:13:13;101153.45;;;7.91;100.00
56174;BME280;42058;52.308;20.924;2022-10-31T07:15:42;101148.17;;;7.94;100.00
56174;BME280;42058;52.308;20.924;2022-10-31T07:18:10;101153.86;;;7.98;100.00
56174;BME280;42058;52.308;20.924;2022-10-31T07:20:37;101156.89;;;8.02;100.00
56174;BME280;42058;52.308;20.924;2022-10-31T07:23:03;101154.23;;;8.06;100.00
56174;BME280;42058;52.308;20.924;2022-10-31T07:25:30;101152.92;;;8.11;100.00
56174;BME280;42058;52.308;20.924;2022-10-31T07:28:04;101155.08;;;8.16;100.00
56174;BME280;42058;52.308;20.924;2022-10-31T07:30:31;101153.31;;;8.21;100.00
56174;BME280;42058;52.308;20.924;2022-10-31T07:32:58;101157.66;;;8.27;100.00
56174;BME280;42058;52.308;20.924;2022-10-31T07:35:27;101156.75;;;8.33;100.00
56174;BME280;42058;52.308;20.924;2022-10-31T07:37:56;101156.70;;;8.37;100.00
56174;BME280;42058;52.308;20.924;2022-10-31T07:40:24;101158.45;;;8.43;100.00
56174;BME280;42058;52.308;20.924;2022-10-31T07:42:52;101156.67;;;8.48;100.00
56174;BME280;42058;52.308;20.924;2022-10-31T07:45:37;101157.08;;;8.54;100.00
56174;BME280;42058;52.308;20.924;2022-10-31T07:48:08;101158.36;;;8.60;100.00
56174;BME280;42058;52.308;20.924;2022-10-31T07:50:53;101164.01;;;8.65;100.00
56174;BME280;42058;52.308;20.924;2022-10-31T07:53:20;101164.41;;;8.71;100.00
56174;BME280;42058;52.308;20.924;2022-10-31T07:55:54;101164.35;;;8.76;100.00
56174;BME280;42058;52.308;20.924;2022-10-31T07:58:22;101166.51;;;8.81;100.00
56174;BME280;42058;52.308;20.924;2022-10-31T08:00:50;101166.91;;;8.85;100.00
56174;BME280;42058;52.308;20.924;2022-10-31T08:03:19;101169.06;;;8.90;100.00
56174;BME280;42058;52.308;20.924;2022-10-31T08:05:55;101173.84;;;8.95;100.00
56174;BME280;42058;52.308;20.924;2022-10-31T08:08:26;101171.60;;;9.01;100.00
56174;BME280;42058;52.308;20.924;2022-10-31T08:10:54;101175.08;;;9.04;100.00
56174;BME280;42058;52.308;20.924;2022-10-31T08:13:21;101175.47;;;9.09;100.00
56174;BME280;42058;52.308;20.924;2022-10-31T08:15:49;101174.14;;;9.13;100.00
56174;BME280;42058;52.308;20.924;2022-10-31T08:18:17;101176.75;;;9.15;100.00
56174;BME280;42058;52.308;20.924;2022-10-31T08:20:44;101177.15;;;9.19;100.00
56174;BME280;42058;52.308;20.924;2022-10-31T08:23:11;101177.13;;;9.22;100.00
56174;BME280;42058;52.308;20.924;2022-10-31T08:25:38;101173.58;;;9.26;100.00
56174;BME280;42058;52.308;20.924;2022-10-31T08:28:06;101169.18;;;9.28;100.00
56174;BME280;42058;52.308;20.924;2022-10-31T08:30:36;101172.64;;;9.33;100.00
56174;BME280;42058;52.308;20.924;2022-10-31T08:33:21;101174.34;;;9.37;100.00
56174;BME280;42058;52.308;20.924;2022-10-31T08:36:04;101178.67;;;9.41;100.00
56174;BME280;42058;52.308;20.924;2022-10-31T08:38:35;101179.51;;;9.47;100.00
56174;BME280;42058;52.308;20.924;2022-10-31T08:41:01;101182.11;;;9.51;100.00
56174;BME280;42058;52.308;20.924;2022-10-31T08:43:27;101182.04;;;9.56;100.00
56174;BME280;42058;52.308;20.924;2022-10-31T08:45:53;101175.86;;;9.60;100.00
56174;BME280;42058;52.308;20.924;2022-10-31T08:48:22;101182.84;;;9.66;100.00
56174;BME280;42058;52.308;20.924;2022-10-31T08:50:48;101182.77;;;9.70;100.00
56174;BME280;42058;52.308;20.924;2022-10-31T08:53:18;101193.20;;;9.76;100.00
56174;BME280;42058;52.308;20.924;2022-10-31T08:55:54;101191.41;;;9.81;100.00
56174;BME280;42058;52.308;20.924;2022-10-31T08:58:24;101188.73;;;9.88;100.00
56174;BME280;42058;52.308;20.924;2022-10-31T09:00:53;101186.02;;;9.94;100.00
56174;BME280;42058;52.308;20.924;2022-10-31T09:03:24;101181.95;;;10.03;100.00
56174;BME280;42058;52.308;20.924;2022-10-31T09:05:57;101180.99;;;10.10;100.00
56174;BME280;42058;52.308;20.924;2022-10-31T09:08:25;101177.38;;;10.19;100.00
56174;BME280;42058;52.308;20.924;2022-10-31T09:10:51;101182.05;;;10.30;100.00
56174;BME280;42058;52.308;20.924;2022-10-31T09:13:21;101188.08;;;10.40;100.00
56174;BME280;42058;52.308;20.924;2022-10-31T09:15:49;101180.97;;;10.48;100.00
56174;BME280;42058;52.308;20.924;2022-10-31T09:18:20;101180.84;;;10.57;100.00
56174;BME280;42058;52.308;20.924;2022-10-31T09:20:57;101178.94;;;10.66;100.00
56174;BME280;42058;52.308;20.924;2022-10-31T09:23:26;101184.07;;;10.75;100.00
56174;BME280;42058;52.308;20.924;2022-10-31T09:25:53;101181.36;;;10.81;100.00
56174;BME280;42058;52.308;20.924;2022-10-31T09:28:37;101183.48;;;10.86;100.00
56174;BME280;42058;52.308;20.924;2022-10-31T09:31:05;101188.63;;;10.94;100.00
56174;BME280;42058;52.308;20.924;2022-10-31T09:33:39;101192.92;;;11.00;100.00
56174;BME280;42058;52.308;20.924;2022-10-31T09:36:07;101188.45;;;11.05;100.00
56174;BME280;42058;52.308;20.924;2022-10-31T09:38:35;101189.66;;;11.11;100.00
56174;BME280;42058;52.308;20.924;2022-10-31T09:44:13;101185.03;;;11.25;100.00
56174;BME280;42058;52.308;20.924;2022-10-31T09:46:47;101188.41;;;11.33;100.00
56174;BME280;42058;52.308;20.924;2022-10-31T09:49:50;101190.45;;;11.42;100.00
56174;BME280;42058;52.308;20.924;2022-10-31T09:52:27;101194.34;;;11.46;100.00
56174;BME280;42058;52.308;20.924;2022-10-31T09:55:17;101191.55;;;11.54;100.00
56174;BME280;42058;52.308;20.924;2022-10-31T09:57:46;101188.80;;;11.60;100.00
56174;BME280;42058;52.308;20.924;2022-10-31T10:00:21;101190.91;;;11.65;100.00
56174;BME280;42058;52.308;20.924;2022-10-31T10:02:51;101182.89;;;11.70;100.00
56174;BME280;42058;52.308;20.924;2022-10-31T10:06:06;101183.25;;;11.76;100.00
56174;BME280;42058;52.308;20.924;2022-10-31T10:08:48;101177.89;;;11.79;100.00
56174;BME280;42058;52.308;20.924;2022-10-31T10:11:42;101183.47;;;11.86;100.00
56174;BME280;42058;52.308;20.924;2022-10-31T10:17:31;101172.71;;;11.98;100.00
56174;BME280;42058;52.308;20.924;2022-10-31T10:21:22;101173.01;;;12.05;100.00
56174;BME280;42058;52.308;20.924;2022-10-31T10:23:16;101169.31;;;12.14;100.00
56174;BME280;42058;52.308;20.924;2022-10-31T10:25:40;101174.91;;;12.20;100.00
56174;BME280;42058;52.308;20.924;2022-10-31T10:28:26;101176.09;;;12.26;100.00
56174;BME280;42058;52.308;20.924;2022-10-31T10:31:08;101177.69;;;12.33;100.00
56174;BME280;42058;52.308;20.924;2022-10-31T10:36:57;101167.20;;;12.49;100.00
56174;BME280;42058;52.308;20.924;2022-10-31T10:39:44;101163.09;;;12.56;100.00
56174;BME280;42058;52.308;20.924;2022-10-31T10:42:18;101161.16;;;12.64;100.00
56174;BME280;42058;52.308;20.924;2022-10-31T10:45:16;101158.37;;;12.70;100.00
56174;BME280;42058;52.308;20.924;2022-10-31T10:48:16;101162.20;;;12.76;100.00
56174;BME280;42058;52.308;20.924;2022-10-31T10:50:53;101166.01;;;12.82;100.00
56174;BME280;42058;52.308;20.924;2022-10-31T10:53:44;101163.63;;;12.89;100.00
56174;BME280;42058;52.308;20.924;2022-10-31T10:56:52;101157.83;;;12.93;100.00
56174;BME280;42058;52.308;20.924;2022-10-31T10:59:28;101154.59;;;13.00;100.00
56174;BME280;42058;52.308;20.924;2022-10-31T11:01:56;101157.00;;;13.09;100.00
56174;BME280;42058;52.308;20.924;2022-10-31T11:07:45;101159.30;;;13.21;100.00
56174;BME280;42058;52.308;20.924;2022-10-31T11:10:13;101146.77;;;13.30;100.00
56174;BME280;42058;52.308;20.924;2022-10-31T11:12:44;101152.34;;;13.37;100.00
56174;BME280;42058;52.308;20.924;2022-10-31T11:15:22;101149.52;;;13.43;100.00
56174;BME280;42058;52.308;20.924;2022-10-31T11:17:51;101150.27;;;13.48;100.00
56174;BME280;42058;52.308;20.924;2022-10-31T11:20:28;101153.59;;;13.56;100.00
56174;BME280;42058;52.308;20.924;2022-10-31T11:23:16;101146.80;;;13.62;100.00
56174;BME280;42058;52.308;20.924;2022-10-31T11:25:53;101150.59;;;13.69;100.00
56174;BME280;42058;52.308;20.924;2022-10-31T11:28:28;101151.30;;;13.75;100.00
56174;BME280;42058;52.308;20.924;2022-10-31T11:31:00;101146.70;;;13.82;100.00
56174;BME280;42058;52.308;20.924;2022-10-31T11:33:36;101140.77;;;13.89;100.00
56174;BME280;42058;52.308;20.924;2022-10-31T11:36:18;101139.28;;;13.95;100.00
56174;BME280;42058;52.308;20.924;2022-10-31T11:38:48;101138.04;;;14.07;100.00
56174;BME280;42058;52.308;20.924;2022-10-31T11:41:18;101145.81;;;14.13;100.00
56174;BME280;42058;52.308;20.924;2022-10-31T11:44:04;101139.39;;;14.20;100.00
56174;BME280;42058;52.308;20.924;2022-10-31T11:46:37;101139.39;;;14.20;100.00
56174;BME280;42058;52.308;20.924;2022-10-31T11:52:04;101131.91;;;14.34;100.00
56174;BME280;42058;52.308;20.924;2022-10-31T11:54:46;101135.28;;;14.39;100.00
56174;BME280;42058;52.308;20.924;2022-10-31T11:57:42;101136.23;;;14.52;100.00
56174;BME280;42058;52.308;20.924;2022-10-31T12:00:21;101136.23;;;14.52;100.00
56174;BME280;42058;52.308;20.924;2022-10-31T12:03:20;101125.59;;;14.53;100.00
56174;BME280;42058;52.308;20.924;2022-10-31T12:08:38;101132.25;;;14.67;100.00
56174;BME280;42058;52.308;20.924;2022-10-31T12:16:46;101126.91;;;14.82;100.00
56174;BME280;42058;52.308;20.924;2022-10-31T12:25:40;101122.73;;;15.01;100.00
56174;BME280;42058;52.308;20.924;2022-10-31T12:34:32;101119.40;;;15.21;100.00
56174;BME280;42058;52.308;20.924;2022-10-31T12:42:45;101113.59;;;15.35;100.00
56174;BME280;42058;52.308;20.924;2022-10-31T12:48:27;101110.73;;;15.41;100.00
56174;BME280;42058;52.308;20.924;2022-10-31T12:54:05;101111.36;;;15.48;100.00
56174;BME280;42058;52.308;20.924;2022-10-31T12:56:43;101117.04;;;15.50;100.00
56174;BME280;42058;52.308;20.924;2022-10-31T12:59:31;101104.58;;;15.52;100.00
56174;BME280;42058;52.308;20.924;2022-10-31T13:02:37;101116.94;;;15.53;100.00
56174;BME280;42058;52.308;20.924;2022-10-31T13:08:14;101119.08;;;15.55;100.00
56174;BME280;42058;52.308;20.924;2022-10-31T13:10:55;101117.70;;;15.57;100.00
56174;BME280;42058;52.308;20.924;2022-10-31T13:13:52;101118.94;;;15.58;100.00
56174;BME280;42058;52.308;20.924;2022-10-31T13:16:18;101107.47;;;15.58;100.00
56174;BME280;42058;52.308;20.924;2022-10-31T13:19:11;101113.25;;;15.57;100.00
56174;BME280;42058;52.308;20.924;2022-10-31T13:25:09;101117.75;;;15.55;100.00
56174;BME280;42058;52.308;20.924;2022-10-31T13:27:45;101115.90;;;15.57;100.00
56174;BME280;42058;52.308;20.924;2022-10-31T13:30:20;101118.08;;;15.58;100.00
56174;BME280;42058;52.308;20.924;2022-10-31T13:33:13;101115.05;;;15.57;100.00
56174;BME280;42058;52.308;20.924;2022-10-31T13:38:38;101105.81;;;15.55;100.00
56174;BME280;42058;52.308;20.924;2022-10-31T13:41:32;101111.63;;;15.53;100.00
56174;BME280;42058;52.308;20.924;2022-10-31T13:44:21;101102.08;;;15.48;100.00
56174;BME280;42058;52.308;20.924;2022-10-31T13:46:54;101102.08;;;15.48;100.00
56174;BME280;42058;52.308;20.924;2022-10-31T13:54:45;101115.77;;;15.49;100.00
56174;BME280;42058;52.308;20.924;2022-10-31T13:57:53;101107.86;;;15.47;100.00
56174;BME280;42058;52.308;20.924;2022-10-31T14:00:03;101110.56;;;15.46;100.00
56174;BME280;42058;52.308;20.924;2022-10-31T14:02:44;101108.37;;;15.45;100.00
56174;BME280;42058;52.308;20.924;2022-10-31T14:05:31;101106.25;;;15.43;100.00
56174;BME280;42058;52.308;20.924;2022-10-31T14:08:03;101101.93;;;15.41;100.00
56174;BME280;42058;52.308;20.924;2022-10-31T14:10:32;101102.08;;;15.36;100.00
56174;BME280;42058;52.308;20.924;2022-10-31T14:13:24;101109.56;;;15.36;100.00
56174;BME280;42058;52.308;20.924;2022-10-31T14:16:04;101106.05;;;15.36;100.00
56174;BME280;42058;52.308;20.924;2022-10-31T14:18:35;101100.52;;;15.30;100.00
56174;BME280;42058;52.308;20.924;2022-10-31T14:23:54;101103.73;;;15.27;100.00
56174;BME280;42058;52.308;20.924;2022-10-31T14:28:59;101102.63;;;15.21;100.00
56174;BME280;42058;52.308;20.924;2022-10-31T14:31:30;101105.43;;;15.16;100.00